Saltillo, Tennessee
Current Conditions -  °F | °C
As of 11:35 PM on Sunday 21 Dec 2014 (Local Time) from KSNH Reporting Station
Broken Clouds Broken Clouds  
Wind Chill: 37°   Ceiling: 2300
Heat Index: 41°   Visibility: 10mi
Dew Point: 41°   Wind: 6mph
Humidity: 100%   Direction: 160°SSE
Pressure: 29.97"   Gusts: NA
Location:  35.38°N, 88.21°W
Report Text: KSNH 220535Z AUTO 16005KT 10SM BKN023 05/05 A2997 RMK
Loading
Personal Weather Stations






























Interactive Weather Map New forecast layout! Learn more

10-Day Weather Forecast

Advertisements
Track Severe Weather on mobile